createdAt,value
2022-09-22T00:00:56.124Z,89.48
2022-09-22T00:03:24.006Z,88.17
2022-09-22T00:05:51.424Z,88.23
2022-09-22T00:08:18.779Z,88.84
2022-09-22T00:10:58.912Z,88.69
2022-09-22T00:13:26.304Z,88.96
2022-09-22T00:15:53.765Z,89.54
2022-09-22T00:18:21.194Z,88.94
2022-09-22T00:20:48.659Z,90.05
2022-09-22T00:23:16.023Z,89.56
2022-09-22T00:25:43.478Z,90.47
2022-09-22T00:28:13.043Z,90.52
2022-09-22T00:30:41.460Z,90.26
2022-09-22T00:33:09.303Z,90.77
2022-09-22T00:35:38.012Z,90.57
2022-09-22T00:38:05.726Z,90.21
2022-09-22T00:40:33.272Z,89.55
2022-09-22T00:43:19.064Z,89.34
2022-09-22T00:45:48.628Z,90.29
2022-09-22T00:48:16.202Z,89.71
2022-09-22T00:50:44.044Z,89.16
2022-09-22T00:53:13.753Z,89.73
2022-09-22T00:55:43.805Z,89.72
2022-09-22T00:58:13.404Z,88.70
2022-09-22T01:00:42.111Z,89.19
2022-09-22T01:03:20.743Z,90.53
2022-09-22T01:05:49.727Z,89.78
2022-09-22T01:08:17.381Z,89.52
2022-09-22T01:10:45.267Z,89.83
2022-09-22T01:13:19.199Z,89.48
2022-09-22T01:15:56.451Z,89.68
2022-09-22T01:18:30.431Z,90.12
2022-09-22T01:21:11.968Z,89.81
2022-09-22T01:24:05.471Z,89.81
2022-09-22T01:26:45.934Z,89.55
2022-09-22T01:29:26.608Z,90.13
2022-09-22T01:32:03.101Z,89.81
2022-09-22T01:34:33.136Z,89.47
2022-09-22T01:37:04.368Z,89.51
2022-09-22T01:39:34.131Z,89.73
2022-09-22T01:42:05.771Z,90.71
2022-09-22T01:44:34.460Z,91.31
2022-09-22T01:47:06.844Z,90.68
2022-09-22T01:49:36.371Z,90.68
2022-09-22T01:52:07.915Z,89.60
2022-09-22T01:54:39.076Z,90.08
2022-09-22T01:57:12.100Z,89.85
2022-09-22T01:59:41.104Z,89.90
2022-09-22T02:02:15.635Z,90.31
2022-09-22T02:04:45.750Z,90.39
2022-09-22T02:07:15.348Z,91.45
2022-09-22T02:09:43.172Z,92.64
2022-09-22T02:12:10.575Z,90.85
2022-09-22T02:14:38.006Z,90.47
2022-09-22T02:17:08.692Z,90.83
2022-09-22T02:19:39.836Z,91.35
2022-09-22T02:22:07.946Z,91.96
2022-09-22T02:24:36.700Z,91.53
2022-09-22T02:27:06.165Z,91.37
2022-09-22T02:29:36.733Z,91.70
2022-09-22T02:32:07.748Z,91.76
2022-09-22T02:34:35.616Z,90.73
2022-09-22T02:37:07.440Z,90.97
2022-09-22T02:39:39.891Z,91.70
2022-09-22T02:42:12.846Z,90.98
2022-09-22T02:44:45.623Z,91.20
2022-09-22T02:47:14.903Z,91.03
2022-09-22T02:49:43.819Z,91.19
2022-09-22T02:52:14.009Z,91.13
2022-09-22T02:54:41.621Z,91.22
2022-09-22T02:57:10.320Z,91.81
2022-09-22T02:59:37.709Z,90.97
2022-09-22T03:02:05.135Z,91.55
2022-09-22T03:04:32.553Z,92.14
2022-09-22T03:07:00.014Z,91.43
2022-09-22T03:09:28.744Z,91.63
2022-09-22T03:11:56.122Z,92.29
2022-09-22T03:14:23.474Z,92.66
2022-09-22T03:16:50.870Z,92.78
2022-09-22T03:19:18.222Z,93.32
2022-09-22T03:21:45.576Z,92.18
2022-09-22T03:24:12.927Z,93.33
2022-09-22T03:26:41.652Z,92.44
2022-09-22T03:29:09.060Z,92.72
2022-09-22T03:31:36.483Z,92.10
2022-09-22T03:34:03.872Z,93.14
2022-09-22T03:36:31.448Z,91.90
2022-09-22T03:38:59.279Z,91.73
2022-09-22T03:41:26.892Z,91.24
2022-09-22T03:43:55.671Z,91.74
2022-09-22T03:46:23.161Z,91.89
2022-09-22T03:48:50.587Z,92.09
2022-09-22T03:51:19.271Z,90.34
2022-09-22T03:53:47.094Z,91.29
2022-09-22T03:56:15.294Z,91.37
2022-09-22T03:58:43.388Z,91.65
2022-09-22T04:01:12.752Z,90.79
2022-09-22T04:03:40.881Z,90.96
2022-09-22T04:06:08.606Z,89.96
2022-09-22T04:08:36.228Z,90.31
2022-09-22T04:11:03.782Z,91.48
2022-09-22T04:13:31.164Z,91.20
2022-09-22T04:15:58.543Z,91.79
2022-09-22T04:18:28.204Z,91.45
2022-09-22T04:20:56.939Z,91.52
2022-09-22T04:23:25.515Z,91.72
2022-09-22T04:25:53.236Z,91.39
2022-09-22T04:28:20.603Z,91.82
2022-09-22T04:30:48.451Z,91.22
2022-09-22T04:33:15.987Z,90.70
2022-09-22T04:35:44.719Z,91.17
2022-09-22T04:38:13.848Z,91.63
2022-09-22T04:40:41.288Z,91.34
2022-09-22T04:43:08.682Z,92.80
2022-09-22T04:45:39.554Z,92.01
2022-09-22T04:48:07.318Z,92.70
2022-09-22T04:50:35.878Z,94.26
2022-09-22T04:53:07.951Z,93.79
2022-09-22T04:55:35.434Z,92.70
2022-09-22T04:58:03.171Z,92.16
2022-09-22T05:00:31.082Z,91.77
2022-09-22T05:02:58.889Z,90.81
2022-09-22T05:05:27.497Z,92.58
2022-09-22T05:07:54.955Z,91.99
2022-09-22T05:10:25.177Z,91.75
2022-09-22T05:12:53.507Z,91.98
2022-09-22T05:15:20.957Z,91.70
2022-09-22T05:17:48.951Z,91.64
2022-09-22T05:20:16.624Z,91.89
2022-09-22T05:22:43.984Z,92.44
2022-09-22T05:25:12.815Z,93.13
2022-09-22T05:27:45.336Z,92.26
2022-09-22T05:30:13.327Z,92.38
2022-09-22T05:32:42.723Z,91.88
2022-09-22T05:35:10.441Z,92.42
2022-09-22T05:37:37.863Z,92.40
2022-09-22T05:40:06.435Z,92.27
2022-09-22T05:42:34.003Z,92.41
2022-09-22T05:45:02.734Z,91.97
2022-09-22T05:47:30.123Z,91.82
2022-09-22T05:49:57.562Z,92.00
2022-09-22T05:52:24.966Z,91.26
2022-09-22T05:55:04.618Z,91.44
2022-09-22T05:57:32.257Z,92.30
2022-09-22T06:00:00.072Z,92.84
2022-09-22T06:02:28.842Z,93.00
2022-09-22T06:04:56.279Z,92.95
2022-09-22T06:07:24.820Z,93.91
2022-09-22T06:09:52.254Z,93.37
2022-09-22T06:12:20.087Z,95.57
2022-09-22T06:14:47.492Z,92.74
2022-09-22T06:17:14.897Z,91.12
2022-09-22T06:19:50.065Z,90.38
2022-09-22T06:22:17.884Z,91.59
2022-09-22T06:24:45.332Z,91.17
2022-09-22T06:27:12.774Z,91.40
2022-09-22T06:29:41.294Z,90.32
2022-09-22T06:32:09.062Z,90.35
2022-09-22T06:34:36.592Z,90.35
2022-09-22T06:37:07.480Z,90.59
2022-09-22T06:39:37.426Z,90.93
2022-09-22T06:42:04.988Z,93.81
2022-09-22T06:44:33.891Z,92.32
2022-09-22T06:47:05.159Z,88.04
2022-09-22T06:49:32.572Z,84.30
2022-09-22T06:51:59.956Z,84.45
2022-09-22T06:54:28.698Z,85.04
2022-09-22T06:56:56.076Z,86.33
2022-09-22T06:59:23.489Z,87.32
2022-09-22T07:01:50.899Z,84.86
2022-09-22T07:04:19.880Z,84.78
2022-09-22T07:06:50.265Z,85.39
2022-09-22T07:09:17.615Z,86.77
2022-09-22T07:11:47.334Z,86.92
2022-09-22T07:14:14.998Z,89.69
2022-09-22T07:16:43.101Z,88.28
2022-09-22T07:19:10.532Z,88.07
2022-09-22T07:21:38.192Z,87.86
2022-09-22T07:24:08.069Z,87.36
2022-09-22T07:26:36.732Z,86.96
2022-09-22T07:29:07.710Z,86.85
2022-09-22T07:31:36.697Z,87.23
2022-09-22T07:34:04.532Z,85.81
2022-09-22T07:36:32.650Z,86.15
2022-09-22T07:39:03.937Z,86.20
2022-09-22T07:41:32.286Z,86.35
2022-09-22T07:44:21.553Z,86.33
2022-09-22T07:46:50.314Z,86.54
2022-09-22T07:49:19.560Z,86.88
2022-09-22T07:51:46.946Z,85.52
2022-09-22T07:54:14.371Z,83.62
2022-09-22T07:56:42.613Z,81.23
2022-09-22T07:59:10.906Z,80.42
2022-09-22T08:01:39.616Z,78.79
2022-09-22T08:04:16.442Z,77.49
2022-09-22T08:06:44.186Z,78.44
2022-09-22T08:09:12.148Z,77.55
2022-09-22T08:11:40.230Z,74.83
2022-09-22T08:14:08.339Z,73.96
2022-09-22T08:16:36.723Z,73.53
2022-09-22T08:19:11.995Z,72.36
2022-09-22T08:21:48.379Z,73.47
2022-09-22T08:24:21.130Z,72.37
2022-09-22T08:26:49.999Z,70.63
2022-09-22T08:29:17.511Z,71.54
2022-09-22T08:31:46.721Z,70.03
2022-09-22T08:34:14.959Z,70.70
2022-09-22T08:36:47.182Z,70.51
2022-09-22T08:39:15.238Z,68.83
2022-09-22T08:41:47.466Z,69.53
2022-09-22T08:44:19.793Z,67.27
2022-09-22T08:46:47.869Z,66.74
2022-09-22T08:49:35.829Z,66.58
2022-09-22T08:52:08.153Z,64.63
2022-09-22T08:54:36.303Z,65.68
2022-09-22T08:57:11.663Z,63.87
2022-09-22T08:59:42.647Z,64.19
2022-09-22T09:02:32.477Z,64.32
2022-09-22T09:05:26.694Z,64.23
2022-09-22T09:08:00.143Z,64.42
2022-09-22T09:10:34.150Z,65.74
2022-09-22T09:13:08.177Z,62.28
2022-09-22T09:15:41.623Z,61.83
2022-09-22T09:18:14.282Z,59.89
2022-09-22T09:20:44.696Z,59.64
2022-09-22T09:23:16.174Z,61.24
2022-09-22T09:25:44.037Z,58.99
2022-09-22T09:28:13.854Z,59.19
2022-09-22T09:30:44.174Z,59.08
2022-09-22T09:33:14.776Z,56.07
2022-09-22T09:35:45.109Z,55.71
2022-09-22T09:38:15.609Z,55.52
2022-09-22T09:40:44.273Z,54.19
2022-09-22T09:43:11.995Z,55.04
2022-09-22T09:45:45.667Z,55.60
2022-09-22T09:48:20.800Z,53.00
2022-09-22T09:50:48.290Z,52.84
2022-09-22T09:53:25.832Z,53.01
2022-09-22T09:55:53.232Z,54.91
2022-09-22T09:58:34.605Z,52.85
2022-09-22T10:01:07.129Z,53.73
2022-09-22T10:03:36.623Z,52.28
2022-09-22T10:06:07.312Z,52.50
2022-09-22T10:08:43.287Z,52.94
2022-09-22T10:11:12.426Z,51.61
2022-09-22T10:13:41.075Z,51.01
2022-09-22T10:16:20.582Z,50.03
2022-09-22T10:18:48.472Z,52.31
2022-09-22T10:21:16.882Z,50.40
2022-09-22T10:23:46.516Z,50.39
2022-09-22T10:26:15.533Z,50.29
2022-09-22T10:28:42.991Z,51.04
2022-09-22T10:31:20.157Z,50.48
2022-09-22T10:33:54.627Z,48.82
2022-09-22T10:36:25.819Z,47.43
2022-09-22T10:38:58.898Z,48.75
2022-09-22T10:41:31.194Z,49.12
2022-09-22T10:44:03.153Z,47.98
2022-09-22T10:46:57.692Z,47.63
2022-09-22T10:49:33.640Z,46.75
2022-09-22T10:52:14.887Z,47.81
2022-09-22T10:54:55.984Z,46.56
2022-09-22T10:57:32.013Z,43.98
2022-09-22T11:00:04.419Z,43.83
2022-09-22T11:02:46.696Z,46.02
2022-09-22T11:05:44.288Z,45.31
2022-09-22T11:08:30.838Z,43.11
2022-09-22T11:11:20.905Z,40.77
2022-09-22T11:13:53.903Z,41.67
2022-09-22T11:16:28.628Z,40.65
2022-09-22T11:19:04.075Z,41.05
2022-09-22T11:21:38.219Z,39.98
2022-09-22T11:24:18.242Z,39.62
2022-09-22T11:26:52.202Z,40.05
2022-09-22T11:29:27.749Z,40.31
2022-09-22T11:32:01.331Z,40.09
2022-09-22T11:34:43.906Z,40.31
2022-09-22T11:37:27.643Z,37.34
2022-09-22T11:40:06.538Z,37.35
2022-09-22T11:42:40.186Z,36.46
2022-09-22T11:45:14.418Z,36.12
2022-09-22T11:47:49.020Z,35.45
2022-09-22T11:50:24.879Z,35.81
2022-09-22T11:53:09.417Z,36.14
2022-09-22T11:55:40.400Z,34.17
2022-09-22T11:58:12.255Z,34.46
2022-09-22T12:00:45.136Z,35.05
2022-09-22T12:03:14.221Z,34.94
2022-09-22T12:05:43.743Z,33.08
2022-09-22T12:08:13.615Z,33.07
2022-09-22T12:10:44.393Z,31.00
2022-09-22T12:13:16.059Z,31.63
2022-09-22T12:15:46.672Z,32.38
2022-09-22T12:18:18.008Z,32.67
2022-09-22T12:20:50.449Z,30.96
2022-09-22T12:23:20.466Z,30.59
2022-09-22T12:25:49.449Z,29.66
2022-09-22T12:28:19.839Z,29.05
2022-09-22T12:30:57.338Z,30.02
2022-09-22T12:33:25.143Z,29.42
2022-09-22T12:35:54.027Z,28.13
2022-09-22T12:38:21.823Z,28.49
2022-09-22T12:40:50.834Z,27.81
2022-09-22T12:43:22.404Z,27.28
2022-09-22T12:45:51.325Z,26.50
2022-09-22T12:48:22.013Z,27.03
2022-09-22T12:50:49.966Z,27.19
2022-09-22T12:53:37.989Z,26.36
2022-09-22T12:56:29.875Z,26.39
2022-09-22T12:58:58.588Z,25.85
2022-09-22T13:01:33.253Z,24.93
2022-09-22T13:04:06.755Z,24.73
2022-09-22T13:06:52.679Z,23.88
2022-09-22T13:09:21.432Z,24.99
2022-09-22T13:12:07.380Z,23.37
2022-09-22T13:15:04.732Z,24.35
2022-09-22T13:17:42.187Z,23.53
2022-09-22T13:20:17.108Z,22.07
2022-09-22T13:22:44.562Z,21.61
2022-09-22T13:25:26.222Z,21.61
2022-09-22T13:28:07.268Z,20.94
2022-09-22T13:30:35.072Z,20.55
2022-09-22T13:33:03.883Z,20.33
2022-09-22T13:35:33.415Z,19.49
2022-09-22T13:38:00.978Z,19.53
2022-09-22T13:40:29.456Z,20.18
2022-09-22T13:42:59.916Z,18.14
2022-09-22T13:45:27.924Z,18.73
2022-09-22T13:47:56.948Z,18.73
2022-09-22T13:50:25.738Z,17.39
2022-09-22T13:52:53.872Z,17.00
2022-09-22T13:55:24.740Z,17.25
2022-09-22T13:57:52.523Z,16.96
2022-09-22T14:00:24.346Z,16.71
2022-09-22T14:02:52.013Z,16.81
2022-09-22T14:05:21.307Z,16.04
2022-09-22T14:08:50.845Z,16.69
2022-09-22T14:11:19.458Z,16.09
2022-09-22T14:13:58.268Z,16.10
2022-09-22T14:16:27.855Z,15.35
2022-09-22T14:18:59.333Z,15.97
2022-09-22T14:21:26.844Z,15.42
2022-09-22T14:23:57.485Z,14.99
2022-09-22T14:26:27.039Z,15.08
2022-09-22T14:28:56.299Z,15.00
2022-09-22T14:31:25.491Z,14.41
2022-09-22T14:33:53.530Z,14.27
2022-09-22T14:36:22.289Z,13.91
2022-09-22T14:39:03.081Z,14.84
2022-09-22T14:41:37.905Z,14.44
2022-09-22T14:44:26.853Z,15.12
2022-09-22T14:46:55.856Z,14.15
2022-09-22T14:49:36.200Z,14.28
2022-09-22T14:52:04.487Z,14.02
2022-09-22T14:54:32.828Z,13.82
2022-09-22T14:57:03.381Z,13.92
2022-09-22T14:59:52.152Z,13.60
2022-09-22T15:02:36.205Z,13.24
2022-09-22T15:05:04.459Z,13.96
2022-09-22T15:07:33.600Z,14.06
2022-09-22T15:10:02.580Z,13.86
2022-09-22T15:12:46.150Z,14.51
2022-09-22T15:15:18.276Z,15.22
2022-09-22T15:18:04.625Z,15.36
2022-09-22T15:20:34.843Z,15.20
2022-09-22T15:23:02.620Z,15.08
2022-09-22T15:25:30.078Z,14.46
2022-09-22T15:27:59.108Z,14.52
2022-09-22T15:30:26.875Z,14.57
2022-09-22T15:32:54.887Z,14.78
2022-09-22T15:35:22.391Z,14.69
2022-09-22T15:37:50.544Z,14.21
2022-09-22T15:40:20.199Z,14.42
2022-09-22T15:43:02.546Z,14.12
2022-09-22T15:45:37.311Z,14.43
2022-09-22T15:48:04.947Z,14.60
2022-09-22T15:50:32.309Z,15.18
2022-09-22T15:52:59.689Z,15.27
2022-09-22T15:55:27.060Z,15.37
2022-09-22T15:57:56.881Z,15.47
2022-09-22T16:00:27.412Z,14.86
2022-09-22T16:02:56.174Z,15.78
2022-09-22T16:05:23.600Z,16.03
2022-09-22T16:07:52.879Z,15.27
2022-09-22T16:10:24.190Z,15.58
2022-09-22T16:12:51.915Z,16.72
2022-09-22T16:15:19.326Z,16.15
2022-09-22T16:17:47.149Z,17.05
2022-09-22T16:20:16.797Z,18.26
2022-09-22T16:22:44.726Z,18.36
2022-09-22T16:25:12.773Z,18.68
2022-09-22T16:27:40.175Z,19.97
2022-09-22T16:30:08.441Z,20.09
2022-09-22T16:32:36.127Z,19.62
2022-09-22T16:35:03.728Z,20.05
2022-09-22T16:37:32.443Z,21.17
2022-09-22T16:39:59.840Z,19.64
2022-09-22T16:42:27.216Z,18.96
2022-09-22T16:44:54.603Z,19.21
2022-09-22T16:47:22.757Z,20.16
2022-09-22T16:49:51.138Z,20.95
2022-09-22T16:52:18.888Z,23.21
2022-09-22T16:54:47.600Z,25.08
2022-09-22T16:57:14.969Z,25.96
2022-09-22T16:59:42.349Z,27.22
2022-09-22T17:02:10.196Z,28.48
2022-09-22T17:04:37.643Z,30.48
2022-09-22T17:07:05.539Z,32.56
2022-09-22T17:09:32.914Z,34.35
2022-09-22T17:12:03.157Z,36.20
2022-09-22T17:14:32.392Z,38.35
2022-09-22T17:17:06.291Z,40.11
2022-09-22T17:19:34.030Z,41.75
2022-09-22T17:22:01.397Z,42.82
2022-09-22T17:24:28.973Z,44.02
2022-09-22T17:26:56.976Z,45.16
2022-09-22T17:29:26.690Z,46.21
2022-09-22T17:31:56.377Z,47.16
2022-09-22T17:34:24.090Z,48.20
2022-09-22T17:36:52.372Z,48.73
2022-09-22T17:39:19.791Z,50.30
2022-09-22T17:41:47.814Z,51.43
2022-09-22T17:44:18.079Z,55.35
2022-09-22T17:47:00.744Z,56.47
2022-09-22T17:49:45.704Z,54.71
2022-09-22T17:55:02.426Z,55.49
2022-09-22T17:57:31.561Z,57.10
2022-09-22T18:00:00.055Z,57.78
2022-09-22T18:02:29.808Z,58.22
2022-09-22T18:04:57.439Z,58.65
2022-09-22T18:07:27.216Z,59.70
2022-09-22T18:09:56.290Z,59.82
2022-09-22T18:12:25.780Z,60.09
2022-09-22T18:14:55.313Z,60.55
2022-09-22T18:17:26.092Z,61.64
2022-09-22T18:19:55.392Z,62.77
2022-09-22T18:22:23.901Z,62.61
2022-09-22T18:24:55.124Z,63.77
2022-09-22T18:27:26.812Z,63.97
2022-09-22T18:29:58.358Z,64.75
2022-09-22T18:32:26.974Z,64.88
2022-09-22T18:34:55.150Z,65.76
2022-09-22T18:37:24.533Z,66.81
2022-09-22T18:39:52.271Z,67.24
2022-09-22T18:42:22.613Z,67.95
2022-09-22T18:44:51.789Z,67.88
2022-09-22T18:47:21.151Z,69.02
2022-09-22T18:49:51.386Z,69.51
2022-09-22T18:52:22.865Z,69.82
2022-09-22T18:54:52.972Z,69.92
2022-09-22T18:57:21.354Z,70.36
2022-09-22T18:59:50.864Z,70.44
2022-09-22T19:02:22.354Z,71.30
2022-09-22T19:04:51.402Z,71.69
2022-09-22T19:07:41.126Z,71.83
2022-09-22T19:10:11.295Z,71.85
2022-09-22T19:12:40.186Z,72.19
2022-09-22T19:15:13.217Z,72.38
2022-09-22T19:17:44.087Z,72.01
2022-09-22T19:20:14.472Z,72.67
2022-09-22T19:22:42.142Z,73.11
2022-09-22T19:25:10.934Z,73.05
2022-09-22T19:27:39.696Z,73.05
2022-09-22T19:30:08.496Z,73.51
2022-09-22T19:32:36.115Z,73.68
2022-09-22T19:35:06.078Z,74.53
2022-09-22T19:37:33.571Z,74.60
2022-09-22T19:40:01.186Z,74.66
2022-09-22T19:42:29.012Z,75.20
2022-09-22T19:44:56.729Z,76.29
2022-09-22T19:47:24.308Z,76.22
2022-09-22T19:49:51.951Z,76.33
2022-09-22T19:52:20.848Z,76.51
2022-09-22T19:54:48.438Z,77.04
2022-09-22T19:57:15.937Z,77.43
2022-09-22T19:59:44.853Z,77.36
2022-09-22T20:02:14.199Z,77.76
2022-09-22T20:04:42.230Z,77.85
2022-09-22T20:07:10.546Z,78.07
2022-09-22T20:09:40.081Z,77.98
2022-09-22T20:12:07.911Z,78.63
2022-09-22T20:14:35.539Z,79.02
2022-09-22T20:17:05.536Z,79.00
2022-09-22T20:19:35.101Z,78.79
2022-09-22T20:22:18.068Z,79.61
2022-09-22T20:24:53.729Z,79.29
2022-09-22T20:27:23.973Z,79.55
2022-09-22T20:29:56.277Z,79.67
2022-09-22T20:32:25.400Z,79.60
2022-09-22T20:34:53.997Z,79.86
2022-09-22T20:37:21.974Z,79.46
2022-09-22T20:39:50.955Z,80.43
2022-09-22T20:42:18.455Z,79.98
2022-09-22T20:44:46.762Z,80.89
2022-09-22T20:47:16.084Z,81.24
2022-09-22T20:49:45.959Z,81.22
2022-09-22T20:52:19.691Z,81.38
2022-09-22T20:54:47.234Z,81.43
2022-09-22T20:57:16.789Z,81.66
2022-09-22T20:59:45.598Z,81.84
2022-09-22T21:02:14.485Z,81.74
2022-09-22T21:04:42.572Z,82.03
2022-09-22T21:07:11.144Z,82.53
2022-09-22T21:09:56.310Z,81.68
2022-09-22T21:12:30.675Z,82.38
2022-09-22T21:14:59.314Z,82.21
2022-09-22T21:17:27.607Z,82.82
2022-09-22T21:19:56.221Z,82.62
2022-09-22T21:22:24.088Z,82.46
2022-09-22T21:24:52.446Z,83.40
2022-09-22T21:27:20.389Z,82.92
2022-09-22T21:29:49.237Z,83.02
2022-09-22T21:32:17.168Z,83.25
2022-09-22T21:34:44.702Z,82.59
2022-09-22T21:37:12.356Z,83.33
2022-09-22T21:39:39.844Z,83.37
2022-09-22T21:42:07.459Z,83.42
2022-09-22T21:44:35.041Z,83.27
2022-09-22T21:47:04.740Z,83.29
2022-09-22T21:49:32.849Z,83.42
2022-09-22T21:52:01.040Z,83.14
2022-09-22T21:54:28.559Z,84.09
2022-09-22T21:56:56.547Z,84.08
2022-09-22T21:59:24.094Z,83.70
2022-09-22T22:01:51.713Z,83.35
2022-09-22T22:04:20.795Z,83.52
2022-09-22T22:06:48.373Z,84.07
2022-09-22T22:09:17.867Z,84.50
2022-09-22T22:11:48.094Z,83.21
2022-09-22T22:14:17.275Z,83.88
2022-09-22T22:16:46.475Z,84.14
2022-09-22T22:19:15.629Z,83.91
2022-09-22T22:21:44.699Z,83.81
2022-09-22T22:24:28.403Z,83.84
2022-09-22T22:26:57.055Z,84.19
2022-09-22T22:29:26.486Z,84.26
2022-09-22T22:31:54.687Z,84.06
2022-09-22T22:34:25.421Z,84.14
2022-09-22T22:36:54.959Z,84.52
2022-09-22T22:39:22.799Z,84.30
2022-09-22T22:41:55.118Z,84.47
2022-09-22T22:44:23.025Z,85.14
2022-09-22T22:46:50.698Z,84.71
2022-09-22T22:49:18.293Z,84.83
2022-09-22T22:51:45.827Z,85.00
2022-09-22T22:54:14.702Z,85.23
2022-09-22T22:56:44.348Z,85.63
2022-09-22T22:59:14.806Z,85.67
2022-09-22T23:01:44.128Z,85.80
2022-09-22T23:04:12.365Z,86.16
2022-09-22T23:06:43.701Z,85.95
2022-09-22T23:09:13.626Z,86.11
2022-09-22T23:11:43.818Z,86.15
2022-09-22T23:14:12.879Z,86.50
2022-09-22T23:16:43.100Z,86.92
2022-09-22T23:19:13.714Z,86.64
2022-09-22T23:21:41.931Z,85.84
2022-09-22T23:24:10.549Z,85.65
2022-09-22T23:26:38.158Z,85.88
2022-09-22T23:29:07.161Z,86.17
2022-09-22T23:31:34.782Z,86.90
2022-09-22T23:34:02.499Z,86.10
2022-09-22T23:36:30.383Z,86.25
2022-09-22T23:39:01.828Z,86.66
2022-09-22T23:41:29.680Z,86.78
2022-09-22T23:43:57.259Z,86.21
2022-09-22T23:46:26.473Z,86.75
2022-09-22T23:48:55.298Z,87.46
2022-09-22T23:51:23.287Z,86.83
2022-09-22T23:53:50.879Z,87.46
2022-09-22T23:56:19.570Z,87.70
2022-09-22T23:58:47.506Z,87.52
